createdAt,value
2018-06-07T00:00:10.968Z,1.60
2018-06-07T00:02:37.935Z,1.50
2018-06-07T00:05:04.872Z,2.53
2018-06-07T00:07:31.795Z,1.93
2018-06-07T00:09:58.751Z,1.77
2018-06-07T00:12:25.662Z,1.53
2018-06-07T00:14:52.576Z,1.60
2018-06-07T00:17:19.559Z,1.50
2018-06-07T00:19:46.501Z,1.63
2018-06-07T00:22:13.435Z,1.70
2018-06-07T00:24:40.399Z,1.30
2018-06-07T00:27:07.322Z,1.63
2018-06-07T00:29:34.283Z,1.77
2018-06-07T00:32:01.256Z,1.80
2018-06-07T00:34:28.172Z,1.57
2018-06-07T00:36:55.103Z,1.50
2018-06-07T00:39:22.054Z,1.27
2018-06-07T00:41:48.971Z,2.07
2018-06-07T00:44:15.905Z,1.80
2018-06-07T00:46:42.848Z,1.37
2018-06-07T00:49:09.799Z,1.90
2018-06-07T00:51:36.717Z,1.37
2018-06-07T00:54:03.698Z,2.23
2018-06-07T00:56:42.398Z,1.90
2018-06-07T00:59:09.371Z,1.47
2018-06-07T01:01:36.271Z,1.50
2018-06-07T01:04:03.180Z,1.90
2018-06-07T01:06:30.148Z,2.10
2018-06-07T01:08:57.144Z,1.83
2018-06-07T01:11:24.302Z,1.53
2018-06-07T01:13:51.356Z,1.80
2018-06-07T01:16:18.285Z,1.40
2018-06-07T01:18:45.271Z,1.77
2018-06-07T01:21:12.220Z,1.50
2018-06-07T01:23:39.157Z,1.57
2018-06-07T01:26:06.108Z,1.37
2018-06-07T01:28:33.047Z,1.40
2018-06-07T01:31:05.989Z,1.20
2018-06-07T01:33:39.984Z,1.60
2018-06-07T01:36:06.925Z,1.63
2018-06-07T01:38:45.716Z,1.70
2018-06-07T01:41:12.636Z,1.50
2018-06-07T01:43:39.568Z,1.20
2018-06-07T01:46:06.519Z,1.70
2018-06-07T01:48:33.487Z,1.30
2018-06-07T01:51:00.428Z,1.50
2018-06-07T01:53:27.364Z,1.17
2018-06-07T01:55:54.334Z,1.70
2018-06-07T01:58:21.273Z,1.10
2018-06-07T02:00:48.339Z,1.67
2018-06-07T02:03:15.260Z,1.53
2018-06-07T02:05:42.192Z,1.50
2018-06-07T02:08:09.139Z,1.40
2018-06-07T02:10:36.055Z,2.20
2018-06-07T02:13:03.000Z,1.47
2018-06-07T02:15:29.961Z,1.17
2018-06-07T02:17:56.889Z,1.23
2018-06-07T02:20:24.345Z,1.17
2018-06-07T02:22:51.328Z,1.10
2018-06-07T02:25:18.254Z,1.23
2018-06-07T02:27:45.340Z,1.23
2018-06-07T02:30:12.329Z,1.33
2018-06-07T02:32:39.266Z,1.50
2018-06-07T02:35:06.207Z,1.33
2018-06-07T02:37:33.199Z,1.50
2018-06-07T02:40:00.145Z,1.40
2018-06-07T02:42:27.092Z,1.43
2018-06-07T02:44:54.040Z,1.37
2018-06-07T02:47:20.985Z,1.40
2018-06-07T02:49:47.952Z,1.27
2018-06-07T02:52:15.027Z,1.03
2018-06-07T02:54:41.957Z,1.40
2018-06-07T02:57:08.893Z,1.40
2018-06-07T02:59:35.851Z,1.83
2018-06-07T03:02:02.787Z,1.13
2018-06-07T03:04:30.168Z,1.40
2018-06-07T03:06:57.115Z,1.40
2018-06-07T03:09:24.078Z,1.20
2018-06-07T03:11:51.006Z,1.20
2018-06-07T03:14:17.957Z,1.20
2018-06-07T03:16:44.883Z,1.30
2018-06-07T03:19:11.831Z,1.57
2018-06-07T03:21:38.775Z,1.30
2018-06-07T03:24:05.682Z,1.50
2018-06-07T03:26:32.649Z,1.30
2018-06-07T03:28:59.627Z,1.20
2018-06-07T03:31:26.654Z,1.80
2018-06-07T03:33:53.571Z,1.20
2018-06-07T03:36:20.522Z,1.40
2018-06-07T03:38:47.435Z,1.20
2018-06-07T03:41:14.353Z,1.60
2018-06-07T03:43:41.309Z,1.43
2018-06-07T03:46:08.243Z,1.27
2018-06-07T03:48:35.142Z,1.40
2018-06-07T03:51:02.103Z,1.97
2018-06-07T03:53:29.068Z,1.17
2018-06-07T03:55:55.983Z,1.30
2018-06-07T03:58:22.922Z,1.77
2018-06-07T04:00:50.033Z,1.20
2018-06-07T04:03:16.943Z,1.10
2018-06-07T04:05:43.891Z,1.40
2018-06-07T04:08:10.811Z,1.73
2018-06-07T04:10:37.763Z,1.33
2018-06-07T04:13:04.736Z,1.30
2018-06-07T04:15:31.669Z,1.97
2018-06-07T04:17:58.593Z,1.70
2018-06-07T04:20:25.624Z,1.70
2018-06-07T04:22:52.554Z,1.20
2018-06-07T04:25:19.487Z,1.50
2018-06-07T04:27:46.437Z,1.80
2018-06-07T04:30:13.374Z,1.30
2018-06-07T04:32:40.313Z,1.80
2018-06-07T04:35:07.266Z,2.30
2018-06-07T04:37:34.213Z,1.67
2018-06-07T04:40:01.157Z,1.83
2018-06-07T04:42:28.156Z,1.40
2018-06-07T04:44:55.088Z,1.70
2018-06-07T04:47:22.030Z,1.60
2018-06-07T04:49:49.057Z,1.90
2018-06-07T04:52:16.008Z,1.57
2018-06-07T04:54:42.964Z,1.50
2018-06-07T04:57:10.489Z,2.07
2018-06-07T04:59:37.434Z,1.33
2018-06-07T05:02:04.381Z,1.47
2018-06-07T05:04:31.324Z,1.60
2018-06-07T05:06:58.256Z,1.70
2018-06-07T05:09:25.193Z,1.73
2018-06-07T05:11:52.156Z,1.70
2018-06-07T05:14:19.076Z,1.30
2018-06-07T05:16:46.038Z,1.37
2018-06-07T05:19:13.001Z,1.90
2018-06-07T05:21:39.931Z,1.70
2018-06-07T05:24:06.882Z,1.60
2018-06-07T05:26:33.828Z,1.87
2018-06-07T05:29:00.762Z,1.50
2018-06-07T05:31:27.909Z,1.73
2018-06-07T05:33:54.906Z,1.30
2018-06-07T05:36:21.862Z,1.77
2018-06-07T05:38:48.876Z,1.80
2018-06-07T05:41:15.817Z,1.60
2018-06-07T05:43:43.659Z,1.80
2018-06-07T05:46:10.588Z,1.60
2018-06-07T05:48:37.541Z,1.57
2018-06-07T05:51:04.495Z,1.40
2018-06-07T05:53:31.481Z,1.77
2018-06-07T05:55:58.476Z,1.47
2018-06-07T05:58:25.456Z,1.47
2018-06-07T06:00:52.409Z,1.50
2018-06-07T06:03:19.397Z,1.53
2018-06-07T06:05:46.354Z,2.20
2018-06-07T06:08:13.417Z,1.60
2018-06-07T06:10:40.472Z,2.00
2018-06-07T06:13:07.413Z,1.77
2018-06-07T06:15:34.393Z,1.60
2018-06-07T06:18:01.394Z,1.70
2018-06-07T06:20:28.318Z,2.57
2018-06-07T06:22:55.260Z,1.87
2018-06-07T06:25:22.224Z,1.90
2018-06-07T06:27:49.189Z,1.73
2018-06-07T06:30:17.316Z,1.90
2018-06-07T06:32:44.264Z,1.67
2018-06-07T06:35:11.194Z,1.63
2018-06-07T06:38:46.952Z,1.70
2018-06-07T06:41:13.913Z,1.77
2018-06-07T06:43:40.847Z,1.60
2018-06-07T06:46:07.833Z,2.30
2018-06-07T06:48:34.757Z,1.73
2018-06-07T06:51:01.705Z,1.80
2018-06-07T06:53:28.693Z,1.37
2018-06-07T06:55:55.637Z,1.80
2018-06-07T06:58:22.560Z,1.77
2018-06-07T07:00:49.511Z,2.07
2018-06-07T07:03:16.436Z,1.80
2018-06-07T07:05:43.375Z,1.80
2018-06-07T07:08:10.317Z,1.90
2018-06-07T07:10:37.253Z,1.60
2018-06-07T07:13:04.324Z,1.93
2018-06-07T07:15:31.644Z,1.40
2018-06-07T07:17:58.586Z,1.60
2018-06-07T07:20:25.508Z,1.80
2018-06-07T07:22:52.468Z,1.73
2018-06-07T07:25:19.999Z,2.30
2018-06-07T07:27:47.026Z,3.73
2018-06-07T07:30:14.078Z,1.73
2018-06-07T07:32:41.004Z,1.83
2018-06-07T07:35:07.939Z,1.70
2018-06-07T07:37:34.896Z,1.77
2018-06-07T07:40:01.873Z,2.03
2018-06-07T07:42:28.914Z,2.13
2018-06-07T07:44:55.858Z,2.00
2018-06-07T07:47:22.925Z,1.57
2018-06-07T07:49:49.853Z,1.73
2018-06-07T07:52:17.069Z,1.50
2018-06-07T07:54:43.976Z,1.60
2018-06-07T07:57:10.899Z,2.13
2018-06-07T07:59:37.860Z,2.13
2018-06-07T08:02:05.173Z,2.30
2018-06-07T08:04:32.141Z,1.90
2018-06-07T08:06:59.092Z,2.07
2018-06-07T08:09:26.032Z,1.80
2018-06-07T08:11:52.964Z,1.97
2018-06-07T08:14:19.936Z,1.73
2018-06-07T08:16:46.883Z,2.00
2018-06-07T08:19:13.802Z,1.90
2018-06-07T08:21:40.761Z,2.40
2018-06-07T08:24:07.712Z,1.50
2018-06-07T08:26:34.721Z,2.20
2018-06-07T08:29:01.699Z,1.90
2018-06-07T08:31:28.689Z,2.20
2018-06-07T08:33:56.511Z,2.50
2018-06-07T08:36:23.530Z,1.83
2018-06-07T08:38:50.506Z,1.60
2018-06-07T08:41:17.918Z,2.40
2018-06-07T08:43:44.993Z,1.93
2018-06-07T08:46:12.022Z,1.83
2018-06-07T08:48:39.071Z,1.73
2018-06-07T08:51:06.119Z,2.20
2018-06-07T08:53:33.160Z,2.20
2018-06-07T08:56:00.215Z,2.40
2018-06-07T08:58:27.284Z,1.80
2018-06-07T09:00:54.331Z,1.63
2018-06-07T09:03:21.412Z,2.10
2018-06-07T09:05:48.466Z,2.13
2018-06-07T09:08:15.517Z,1.90
2018-06-07T09:10:42.658Z,2.00
2018-06-07T09:13:09.757Z,2.03
2018-06-07T09:15:36.810Z,2.47
2018-06-07T09:18:05.367Z,2.47
2018-06-07T09:20:32.337Z,2.47
2018-06-07T09:22:59.415Z,2.40
2018-06-07T09:25:26.455Z,2.50
2018-06-07T09:27:53.425Z,2.23
2018-06-07T09:30:20.473Z,1.77
2018-06-07T09:32:47.499Z,2.53
2018-06-07T09:35:14.459Z,2.30
2018-06-07T09:37:41.488Z,2.10
2018-06-07T09:40:08.459Z,2.23
2018-06-07T09:42:35.510Z,2.43
2018-06-07T09:45:02.447Z,2.37
2018-06-07T09:47:29.408Z,2.63
2018-06-07T09:49:56.383Z,2.90
2018-06-07T09:52:23.361Z,2.77
2018-06-07T09:54:50.310Z,2.83
2018-06-07T09:57:17.398Z,3.53
2018-06-07T09:59:44.396Z,3.03
2018-06-07T10:02:11.358Z,3.10
2018-06-07T10:04:38.332Z,3.03
2018-06-07T10:07:05.270Z,1.93
2018-06-07T10:09:32.247Z,2.20
2018-06-07T10:11:59.463Z,2.50
2018-06-07T10:14:26.419Z,2.40
2018-06-07T10:16:53.442Z,2.67
2018-06-07T10:19:20.417Z,2.20
2018-06-07T10:21:47.451Z,2.73
2018-06-07T10:24:14.385Z,2.47
2018-06-07T10:26:41.356Z,2.93
2018-06-07T10:29:08.316Z,2.43
2018-06-07T10:31:35.260Z,2.40
2018-06-07T10:34:02.216Z,2.47
2018-06-07T10:36:29.161Z,2.70
2018-06-07T10:38:56.124Z,2.40
2018-06-07T10:41:23.058Z,2.50
2018-06-07T10:43:50.005Z,3.07
2018-06-07T10:46:17.047Z,2.33
2018-06-07T10:48:44.110Z,2.90
2018-06-07T10:51:11.100Z,2.90
2018-06-07T10:53:38.071Z,2.50
2018-06-07T10:56:05.027Z,2.43
2018-06-07T10:58:32.097Z,2.20
2018-06-07T11:00:59.157Z,2.43
2018-06-07T11:03:26.196Z,2.30
2018-06-07T11:05:53.244Z,2.50
2018-06-07T11:08:20.272Z,2.63
2018-06-07T11:10:47.406Z,2.30
2018-06-07T11:13:14.453Z,4.10
2018-06-07T11:15:41.517Z,4.17
2018-06-07T11:18:08.834Z,2.23
2018-06-07T11:20:35.759Z,2.80
2018-06-07T11:23:02.710Z,3.10
2018-06-07T11:25:29.659Z,2.60
2018-06-07T11:27:56.687Z,2.83
2018-06-07T11:30:23.770Z,2.70
2018-06-07T11:32:50.843Z,2.80
2018-06-07T11:35:17.767Z,2.67
2018-06-07T11:37:44.682Z,3.07
2018-06-07T11:40:11.638Z,2.60
2018-06-07T11:42:38.572Z,3.30
2018-06-07T11:45:05.480Z,3.00
2018-06-07T11:47:32.452Z,7.10
2018-06-07T11:49:59.375Z,2.47
2018-06-07T11:52:26.298Z,2.70
2018-06-07T11:54:53.289Z,2.37
2018-06-07T11:57:20.209Z,3.20
2018-06-07T11:59:47.196Z,2.73
2018-06-07T12:02:14.169Z,2.73
2018-06-07T12:04:41.161Z,2.87
2018-06-07T12:07:08.415Z,3.07
2018-06-07T12:09:35.403Z,2.57
2018-06-07T12:12:02.633Z,2.30
2018-06-07T12:14:29.570Z,3.27
2018-06-07T12:16:56.825Z,3.10
2018-06-07T12:19:23.773Z,2.70
2018-06-07T12:21:50.814Z,2.70
2018-06-07T12:24:17.877Z,2.87
2018-06-07T12:26:44.923Z,3.13
2018-06-07T12:29:11.942Z,2.63
2018-06-07T12:31:38.990Z,2.50
2018-06-07T12:34:06.107Z,2.40
2018-06-07T12:36:33.171Z,1.73
2018-06-07T12:39:00.222Z,2.80
2018-06-07T12:41:27.412Z,2.97
2018-06-07T12:43:54.464Z,1.80
2018-06-07T12:46:22.151Z,2.27
2018-06-07T12:48:50.266Z,2.00
2018-06-07T12:51:17.351Z,2.40
2018-06-07T12:53:44.543Z,3.27
2018-06-07T12:56:11.580Z,2.60
2018-06-07T12:58:39.076Z,2.40
2018-06-07T13:01:06.156Z,1.57
2018-06-07T13:03:33.200Z,2.20
2018-06-07T13:06:00.240Z,2.63
2018-06-07T13:08:27.292Z,2.67
2018-06-07T13:10:54.781Z,2.37
2018-06-07T13:13:21.933Z,2.20
2018-06-07T13:15:49.016Z,2.40
2018-06-07T13:18:16.069Z,2.40
2018-06-07T13:20:43.090Z,2.20
2018-06-07T13:23:10.193Z,1.97
2018-06-07T13:25:37.240Z,2.00
2018-06-07T13:28:04.269Z,2.50
2018-06-07T13:30:31.299Z,1.80
2018-06-07T13:32:58.464Z,1.67
2018-06-07T13:35:25.588Z,2.17
2018-06-07T13:37:52.734Z,1.80
2018-06-07T13:40:19.969Z,2.00
2018-06-07T13:42:47.024Z,2.10
2018-06-07T13:45:14.480Z,2.50
2018-06-07T13:47:41.508Z,2.10
2018-06-07T13:50:08.603Z,2.70
2018-06-07T13:52:35.694Z,2.00
2018-06-07T13:55:03.374Z,2.23
2018-06-07T13:57:30.768Z,1.70
2018-06-07T13:59:57.932Z,2.10
2018-06-07T14:02:25.123Z,1.83
2018-06-07T14:04:52.454Z,3.37
2018-06-07T14:07:19.616Z,1.70
2018-06-07T14:09:46.845Z,2.73
2018-06-07T14:12:13.934Z,3.13
2018-06-07T14:14:41.114Z,2.03
2018-06-07T14:17:08.180Z,2.07
2018-06-07T14:19:35.283Z,3.27
2018-06-07T14:22:02.348Z,1.83
2018-06-07T14:24:29.475Z,1.50
2018-06-07T14:26:56.576Z,3.40
2018-06-07T14:29:23.687Z,2.90
2018-06-07T14:31:50.771Z,2.67
2018-06-07T14:34:17.956Z,1.50
2018-06-07T14:36:45.071Z,2.67
2018-06-07T14:39:12.272Z,2.30
2018-06-07T14:41:39.566Z,2.50
2018-06-07T14:44:06.719Z,1.90
2018-06-07T14:46:33.876Z,2.00
2018-06-07T14:49:01.016Z,1.70
2018-06-07T14:51:28.240Z,2.00
2018-06-07T14:53:55.373Z,2.00
2018-06-07T14:56:22.466Z,2.30
2018-06-07T14:58:49.556Z,1.80
2018-06-07T15:01:16.674Z,2.10
2018-06-07T15:03:43.845Z,1.80
2018-06-07T15:06:11.221Z,2.20
2018-06-07T15:08:38.340Z,2.70
2018-06-07T15:11:05.883Z,2.00
2018-06-07T15:13:33.096Z,2.50
2018-06-07T15:16:00.367Z,2.30
2018-06-07T15:18:27.630Z,2.70
2018-06-07T15:20:54.842Z,2.47
2018-06-07T15:23:22.192Z,2.90
2018-06-07T15:25:49.481Z,1.70
2018-06-07T15:28:16.813Z,2.83
2018-06-07T15:30:44.285Z,3.00
2018-06-07T15:33:11.563Z,4.07
2018-06-07T15:35:38.801Z,2.63
2018-06-07T15:38:06.116Z,2.50
2018-06-07T15:40:40.191Z,2.47
2018-06-07T15:43:07.254Z,4.43
2018-06-07T15:45:34.292Z,3.17
2018-06-07T15:48:01.418Z,2.13
2018-06-07T15:50:28.448Z,2.40
2018-06-07T15:52:55.488Z,2.93
2018-06-07T15:55:22.587Z,2.73
2018-06-07T15:57:49.599Z,2.43
2018-06-07T16:00:16.623Z,2.20
2018-06-07T16:02:43.691Z,2.23
2018-06-07T16:05:10.724Z,2.80
2018-06-07T16:07:37.754Z,3.00
2018-06-07T16:10:04.834Z,3.00
2018-06-07T16:12:31.911Z,3.10
2018-06-07T16:14:58.967Z,3.00
2018-06-07T16:17:26.183Z,2.53
2018-06-07T16:19:53.348Z,3.20
2018-06-07T16:22:20.453Z,3.03
2018-06-07T16:24:47.697Z,2.50
2018-06-07T16:27:14.877Z,3.20
2018-06-07T16:29:42.067Z,3.50
2018-06-07T16:32:09.278Z,2.90
2018-06-07T16:34:36.329Z,2.83
2018-06-07T16:37:03.590Z,4.40
2018-06-07T16:39:30.707Z,3.90
2018-06-07T16:41:58.366Z,3.90
2018-06-07T16:44:25.289Z,2.57
2018-06-07T16:46:52.435Z,3.13
2018-06-07T16:49:19.405Z,3.90
2018-06-07T16:51:46.362Z,3.97
2018-06-07T16:54:13.366Z,3.50
2018-06-07T16:56:40.491Z,3.97
2018-06-07T16:59:07.624Z,4.23
2018-06-07T17:01:34.586Z,3.40
2018-06-07T17:04:01.552Z,3.50
2018-06-07T17:06:28.865Z,4.13
2018-06-07T17:08:56.021Z,2.80
2018-06-07T17:11:22.975Z,3.13
2018-06-07T17:13:49.908Z,2.50
2018-06-07T17:16:17.597Z,3.30
2018-06-07T17:18:44.586Z,3.37
2018-06-07T17:21:11.534Z,4.10
2018-06-07T17:23:38.830Z,2.67
2018-06-07T17:26:05.916Z,3.17
2018-06-07T17:28:32.893Z,3.50
2018-06-07T17:31:00.677Z,2.90
2018-06-07T17:33:27.632Z,3.07
2018-06-07T17:35:54.569Z,3.57
2018-06-07T17:38:21.510Z,3.83
2018-06-07T17:40:48.461Z,4.07
2018-06-07T17:43:15.396Z,4.27
2018-06-07T17:45:42.337Z,5.50
2018-06-07T17:48:09.449Z,4.00
2018-06-07T17:50:36.372Z,4.77
2018-06-07T17:53:03.591Z,4.30
2018-06-07T17:55:30.547Z,4.40
2018-06-07T17:57:57.526Z,3.53
2018-06-07T18:00:24.491Z,4.10
2018-06-07T18:02:51.436Z,3.77
2018-06-07T18:05:18.787Z,5.00
2018-06-07T18:07:45.741Z,4.80
2018-06-07T18:10:13.408Z,4.30
2018-06-07T18:12:40.537Z,4.13
2018-06-07T18:15:07.431Z,4.60
2018-06-07T18:17:34.364Z,4.00
2018-06-07T18:20:01.548Z,4.23
2018-06-07T18:22:28.592Z,4.50
2018-06-07T18:24:55.549Z,5.33
2018-06-07T18:27:22.507Z,3.37
2018-06-07T18:29:49.476Z,2.77
2018-06-07T18:32:16.434Z,3.23
2018-06-07T18:34:43.384Z,3.27
2018-06-07T18:37:10.356Z,3.77
2018-06-07T18:39:37.292Z,2.97
2018-06-07T18:42:04.344Z,3.20
2018-06-07T18:44:31.326Z,4.57
2018-06-07T18:46:58.296Z,3.67
2018-06-07T18:49:25.470Z,3.40
2018-06-07T18:51:52.466Z,3.10
2018-06-07T18:54:19.416Z,3.70
2018-06-07T18:56:46.353Z,3.80
2018-06-07T18:59:13.326Z,3.83
2018-06-07T19:01:40.352Z,3.63
2018-06-07T19:04:07.298Z,3.67
2018-06-07T19:06:34.405Z,3.73
2018-06-07T19:09:07.159Z,3.73
2018-06-07T19:11:34.264Z,4.77
2018-06-07T19:14:07.028Z,3.90
2018-06-07T19:16:33.981Z,3.80
2018-06-07T19:19:06.838Z,3.20
2018-06-07T19:21:33.824Z,3.10
2018-06-07T19:24:00.783Z,2.93
2018-06-07T19:26:33.635Z,2.90
2018-06-07T19:29:00.669Z,3.00
2018-06-07T19:31:27.815Z,3.43
2018-06-07T19:34:00.584Z,4.10
2018-06-07T19:36:27.614Z,4.43
2018-06-07T19:39:00.313Z,3.50
2018-06-07T19:41:33.181Z,2.63
2018-06-07T19:44:00.130Z,3.30
2018-06-07T19:46:27.259Z,3.43
2018-06-07T19:48:54.414Z,3.40
2018-06-07T19:51:21.417Z,3.47
2018-06-07T19:53:48.478Z,2.40
2018-06-07T19:56:15.547Z,2.80
2018-06-07T19:58:42.673Z,5.53
2018-06-07T20:01:09.604Z,4.43
2018-06-07T20:03:36.550Z,4.27
2018-06-07T20:06:03.480Z,2.80
2018-06-07T20:08:30.477Z,3.60
2018-06-07T20:10:57.380Z,3.80
2018-06-07T20:13:24.412Z,3.90
2018-06-07T20:15:51.459Z,5.47
2018-06-07T20:18:18.481Z,3.10
2018-06-07T20:20:45.430Z,3.37
2018-06-07T20:23:12.357Z,3.00
2018-06-07T20:25:41.392Z,3.27
2018-06-07T20:28:08.363Z,3.33
2018-06-07T20:30:35.297Z,3.50
2018-06-07T20:33:02.244Z,3.20
2018-06-07T20:35:29.980Z,2.80
2018-06-07T20:37:57.132Z,3.50
2018-06-07T20:40:24.104Z,3.53
2018-06-07T20:42:51.088Z,3.10
2018-06-07T20:45:18.152Z,3.30
2018-06-07T20:47:45.131Z,3.13
2018-06-07T20:50:12.139Z,3.13
2018-06-07T20:52:39.084Z,3.33
2018-06-07T20:55:06.066Z,3.40
2018-06-07T20:57:33.010Z,3.93
2018-06-07T21:00:00.011Z,3.23
2018-06-07T21:02:27.885Z,3.07
2018-06-07T21:04:55.316Z,3.40
2018-06-07T21:07:24.672Z,3.30
2018-06-07T21:09:53.196Z,3.63
2018-06-07T21:12:21.062Z,4.00
2018-06-07T21:14:48.823Z,4.03
2018-06-07T21:17:17.588Z,3.47
2018-06-07T21:19:45.462Z,3.23
2018-06-07T21:22:13.320Z,3.60
2018-06-07T21:24:40.820Z,2.90
2018-06-07T21:27:07.819Z,3.13
2018-06-07T21:29:34.836Z,3.00
2018-06-07T21:32:01.820Z,3.17
2018-06-07T21:34:28.776Z,3.63
2018-06-07T21:36:55.740Z,3.73
2018-06-07T21:39:22.730Z,3.60
2018-06-07T21:41:49.674Z,4.03
2018-06-07T21:44:16.617Z,4.10
2018-06-07T21:46:43.651Z,4.07
2018-06-07T21:49:10.531Z,3.07
2018-06-07T21:51:37.484Z,2.83
2018-06-07T21:54:04.476Z,3.57
2018-06-07T21:56:31.423Z,3.23
2018-06-07T21:58:58.407Z,3.60
2018-06-07T22:01:25.342Z,3.00
2018-06-07T22:03:52.277Z,2.60
2018-06-07T22:06:19.210Z,3.33
2018-06-07T22:08:46.179Z,3.03
2018-06-07T22:11:13.095Z,3.57
2018-06-07T22:13:40.064Z,4.07
2018-06-07T22:16:07.044Z,3.90
2018-06-07T22:18:34.023Z,3.77
2018-06-07T22:21:00.977Z,3.97
2018-06-07T22:23:27.925Z,3.97
2018-06-07T22:25:54.852Z,3.80
2018-06-07T22:28:21.817Z,6.27
2018-06-07T22:30:48.755Z,5.63
2018-06-07T22:33:15.695Z,5.40
2018-06-07T22:35:42.648Z,3.90
2018-06-07T22:38:09.613Z,3.50
2018-06-07T22:40:36.546Z,3.10
2018-06-07T22:43:04.270Z,3.63
2018-06-07T22:45:31.302Z,3.00
2018-06-07T22:47:58.264Z,2.67
2018-06-07T22:50:25.383Z,3.00
2018-06-07T22:52:52.399Z,3.10
2018-06-07T22:55:19.314Z,3.17
2018-06-07T22:57:46.282Z,4.27
2018-06-07T23:00:14.843Z,4.57
2018-06-07T23:02:47.584Z,3.80
2018-06-07T23:05:14.538Z,5.93
2018-06-07T23:07:41.473Z,4.20
2018-06-07T23:10:08.605Z,4.67
2018-06-07T23:12:35.624Z,7.50
2018-06-07T23:15:02.591Z,4.57
2018-06-07T23:17:29.507Z,4.83
2018-06-07T23:19:56.602Z,3.10
2018-06-07T23:22:23.513Z,3.00
2018-06-07T23:24:50.441Z,3.40
2018-06-07T23:27:18.220Z,3.47
2018-06-07T23:29:45.421Z,3.07
2018-06-07T23:32:12.571Z,2.93
2018-06-07T23:34:39.650Z,3.00
2018-06-07T23:37:06.594Z,2.80
2018-06-07T23:39:33.799Z,3.07
2018-06-07T23:42:00.860Z,3.00
2018-06-07T23:44:27.805Z,3.63
2018-06-07T23:46:54.736Z,3.77
2018-06-07T23:49:21.911Z,4.17
2018-06-07T23:51:48.880Z,3.53
2018-06-07T23:54:16.158Z,3.00
2018-06-07T23:56:43.231Z,4.90
2018-06-07T23:59:10.202Z,4.17
